sensor_id;sensor_type;location;lat;lon;timestamp;P1;durP1;ratioP1;P2;durP2;ratioP2
39600;SDS011;25297;44.758;11.310;2022-12-29T00:02:12;105.97;;;53.70;;
39600;SDS011;25297;44.758;11.310;2022-12-29T00:04:38;106.60;;;54.83;;
39600;SDS011;25297;44.758;11.310;2022-12-29T00:07:04;106.00;;;53.10;;
39600;SDS011;25297;44.758;11.310;2022-12-29T00:09:30;112.05;;;56.33;;
39600;SDS011;25297;44.758;11.310;2022-12-29T00:11:57;113.60;;;56.45;;
39600;SDS011;25297;44.758;11.310;2022-12-29T00:14:23;111.18;;;56.05;;
39600;SDS011;25297;44.758;11.310;2022-12-29T00:17:07;113.47;;;56.83;;
39600;SDS011;25297;44.758;11.310;2022-12-29T00:19:33;108.60;;;54.88;;
39600;SDS011;25297;44.758;11.310;2022-12-29T00:22:17;112.90;;;58.03;;
39600;SDS011;25297;44.758;11.310;2022-12-29T00:25:01;122.55;;;58.35;;
39600;SDS011;25297;44.758;11.310;2022-12-29T00:27:46;106.18;;;53.78;;
39600;SDS011;25297;44.758;11.310;2022-12-29T00:30:30;125.68;;;59.63;;
39600;SDS011;25297;44.758;11.310;2022-12-29T00:33:19;104.53;;;53.92;;
39600;SDS011;25297;44.758;11.310;2022-12-29T00:38:43;111.95;;;55.28;;
39600;SDS011;25297;44.758;11.310;2022-12-29T00:41:32;110.45;;;53.47;;
39600;SDS011;25297;44.758;11.310;2022-12-29T00:44:16;98.97;;;51.75;;
39600;SDS011;25297;44.758;11.310;2022-12-29T00:46:42;98.30;;;50.60;;
39600;SDS011;25297;44.758;11.310;2022-12-29T00:49:09;114.15;;;58.50;;
39600;SDS011;25297;44.758;11.310;2022-12-29T00:51:56;130.60;;;59.88;;
39600;SDS011;25297;44.758;11.310;2022-12-29T00:54:25;103.18;;;51.95;;
39600;SDS011;25297;44.758;11.310;2022-12-29T00:56:52;101.57;;;52.47;;
39600;SDS011;25297;44.758;11.310;2022-12-29T00:59:18;111.28;;;53.83;;
39600;SDS011;25297;44.758;11.310;2022-12-29T01:01:45;103.97;;;51.40;;
39600;SDS011;25297;44.758;11.310;2022-12-29T01:04:11;100.63;;;51.55;;
39600;SDS011;25297;44.758;11.310;2022-12-29T01:06:38;97.75;;;51.95;;
39600;SDS011;25297;44.758;11.310;2022-12-29T01:09:05;116.38;;;55.58;;
39600;SDS011;25297;44.758;11.310;2022-12-29T01:11:50;111.80;;;56.08;;
39600;SDS011;25297;44.758;11.310;2022-12-29T01:14:16;99.45;;;51.92;;
39600;SDS011;25297;44.758;11.310;2022-12-29T01:16:42;106.75;;;53.25;;
39600;SDS011;25297;44.758;11.310;2022-12-29T01:19:08;117.68;;;56.95;;
39600;SDS011;25297;44.758;11.310;2022-12-29T01:21:34;113.35;;;53.88;;
39600;SDS011;25297;44.758;11.310;2022-12-29T01:23:59;117.07;;;57.13;;
39600;SDS011;25297;44.758;11.310;2022-12-29T01:26:25;127.05;;;57.60;;
39600;SDS011;25297;44.758;11.310;2022-12-29T01:28:51;97.63;;;52.13;;
39600;SDS011;25297;44.758;11.310;2022-12-29T01:31:16;100.85;;;53.90;;
39600;SDS011;25297;44.758;11.310;2022-12-29T01:33:42;114.80;;;56.03;;
39600;SDS011;25297;44.758;11.310;2022-12-29T01:36:09;107.00;;;53.42;;
39600;SDS011;25297;44.758;11.310;2022-12-29T01:38:39;107.60;;;54.75;;
39600;SDS011;25297;44.758;11.310;2022-12-29T01:41:07;112.97;;;54.47;;
39600;SDS011;25297;44.758;11.310;2022-12-29T01:43:44;97.47;;;51.53;;
39600;SDS011;25297;44.758;11.310;2022-12-29T01:51:41;126.38;;;60.40;;
39600;SDS011;25297;44.758;11.310;2022-12-29T01:54:22;122.10;;;53.72;;
39600;SDS011;25297;44.758;11.310;2022-12-29T01:56:57;106.95;;;53.58;;
39600;SDS011;25297;44.758;11.310;2022-12-29T01:59:27;97.50;;;52.97;;
39600;SDS011;25297;44.758;11.310;2022-12-29T02:01:57;106.35;;;53.40;;
39600;SDS011;25297;44.758;11.310;2022-12-29T02:04:23;112.95;;;56.28;;
39600;SDS011;25297;44.758;11.310;2022-12-29T02:06:53;95.97;;;49.95;;
39600;SDS011;25297;44.758;11.310;2022-12-29T02:09:22;114.40;;;56.75;;
39600;SDS011;25297;44.758;11.310;2022-12-29T02:11:48;105.85;;;51.95;;
39600;SDS011;25297;44.758;11.310;2022-12-29T02:14:14;112.72;;;54.95;;
39600;SDS011;25297;44.758;11.310;2022-12-29T02:30:06;109.38;;;54.88;;
39600;SDS011;25297;44.758;11.310;2022-12-29T02:32:37;105.22;;;54.58;;
39600;SDS011;25297;44.758;11.310;2022-12-29T02:35:29;105.22;;;52.97;;
39600;SDS011;25297;44.758;11.310;2022-12-29T02:40:51;97.75;;;51.53;;
39600;SDS011;25297;44.758;11.310;2022-12-29T02:43:40;105.10;;;51.72;;
39600;SDS011;25297;44.758;11.310;2022-12-29T02:46:26;103.70;;;53.47;;
39600;SDS011;25297;44.758;11.310;2022-12-29T02:51:58;94.63;;;48.50;;
39600;SDS011;25297;44.758;11.310;2022-12-29T02:54:26;99.07;;;50.88;;
39600;SDS011;25297;44.758;11.310;2022-12-29T02:57:15;105.63;;;51.22;;
39600;SDS011;25297;44.758;11.310;2022-12-29T03:13:35;118.90;;;53.72;;
39600;SDS011;25297;44.758;11.310;2022-12-29T03:16:46;107.75;;;51.90;;
39600;SDS011;25297;44.758;11.310;2022-12-29T03:19:23;101.75;;;52.85;;
39600;SDS011;25297;44.758;11.310;2022-12-29T03:21:54;107.80;;;53.10;;
39600;SDS011;25297;44.758;11.310;2022-12-29T03:24:48;106.25;;;53.58;;
39600;SDS011;25297;44.758;11.310;2022-12-29T03:27:23;100.85;;;52.78;;
39600;SDS011;25297;44.758;11.310;2022-12-29T03:29:57;110.47;;;54.03;;
39600;SDS011;25297;44.758;11.310;2022-12-29T03:32:36;105.22;;;51.55;;
39600;SDS011;25297;44.758;11.310;2022-12-29T03:35:07;123.03;;;55.75;;
39600;SDS011;25297;44.758;11.310;2022-12-29T03:37:36;104.85;;;51.53;;
39600;SDS011;25297;44.758;11.310;2022-12-29T03:40:05;103.88;;;52.10;;
39600;SDS011;25297;44.758;11.310;2022-12-29T03:42:32;111.10;;;53.28;;
39600;SDS011;25297;44.758;11.310;2022-12-29T03:45:00;102.97;;;53.47;;
39600;SDS011;25297;44.758;11.310;2022-12-29T03:47:26;114.53;;;53.97;;
39600;SDS011;25297;44.758;11.310;2022-12-29T03:49:52;103.30;;;51.70;;
39600;SDS011;25297;44.758;11.310;2022-12-29T03:52:18;123.10;;;56.78;;
39600;SDS011;25297;44.758;11.310;2022-12-29T03:54:43;110.75;;;55.97;;
39600;SDS011;25297;44.758;11.310;2022-12-29T03:57:10;98.45;;;52.15;;
39600;SDS011;25297;44.758;11.310;2022-12-29T03:59:36;106.18;;;53.50;;
39600;SDS011;25297;44.758;11.310;2022-12-29T04:02:01;112.40;;;56.15;;
39600;SDS011;25297;44.758;11.310;2022-12-29T04:04:27;104.82;;;53.17;;
39600;SDS011;25297;44.758;11.310;2022-12-29T04:06:53;116.60;;;54.67;;
39600;SDS011;25297;44.758;11.310;2022-12-29T04:09:19;109.53;;;53.83;;
39600;SDS011;25297;44.758;11.310;2022-12-29T04:11:44;103.32;;;50.97;;
39600;SDS011;25297;44.758;11.310;2022-12-29T04:14:10;94.25;;;51.70;;
39600;SDS011;25297;44.758;11.310;2022-12-29T04:16:35;101.05;;;50.67;;
39600;SDS011;25297;44.758;11.310;2022-12-29T04:19:03;103.82;;;52.92;;
39600;SDS011;25297;44.758;11.310;2022-12-29T04:21:30;112.15;;;55.67;;
39600;SDS011;25297;44.758;11.310;2022-12-29T04:23:55;114.80;;;55.90;;
39600;SDS011;25297;44.758;11.310;2022-12-29T04:26:21;102.22;;;51.33;;
39600;SDS011;25297;44.758;11.310;2022-12-29T04:28:47;109.18;;;51.60;;
39600;SDS011;25297;44.758;11.310;2022-12-29T04:31:12;110.45;;;54.85;;
39600;SDS011;25297;44.758;11.310;2022-12-29T04:33:38;109.07;;;52.92;;
39600;SDS011;25297;44.758;11.310;2022-12-29T04:36:04;99.82;;;50.20;;
39600;SDS011;25297;44.758;11.310;2022-12-29T04:38:30;114.72;;;54.40;;
39600;SDS011;25297;44.758;11.310;2022-12-29T04:40:57;101.75;;;51.65;;
39600;SDS011;25297;44.758;11.310;2022-12-29T04:43:25;96.22;;;49.67;;
39600;SDS011;25297;44.758;11.310;2022-12-29T04:45:50;104.65;;;53.65;;
39600;SDS011;25297;44.758;11.310;2022-12-29T04:48:16;104.20;;;51.58;;
39600;SDS011;25297;44.758;11.310;2022-12-29T04:50:42;107.88;;;54.75;;
39600;SDS011;25297;44.758;11.310;2022-12-29T04:53:08;114.32;;;57.38;;
39600;SDS011;25297;44.758;11.310;2022-12-29T04:55:34;103.63;;;51.70;;
39600;SDS011;25297;44.758;11.310;2022-12-29T04:57:59;115.55;;;54.20;;
39600;SDS011;25297;44.758;11.310;2022-12-29T05:00:25;104.05;;;51.97;;
39600;SDS011;25297;44.758;11.310;2022-12-29T05:02:51;123.38;;;55.72;;
39600;SDS011;25297;44.758;11.310;2022-12-29T05:05:17;107.70;;;53.42;;
39600;SDS011;25297;44.758;11.310;2022-12-29T05:07:43;98.63;;;51.97;;
39600;SDS011;25297;44.758;11.310;2022-12-29T05:10:08;109.63;;;53.35;;
39600;SDS011;25297;44.758;11.310;2022-12-29T05:12:35;101.78;;;52.20;;
39600;SDS011;25297;44.758;11.310;2022-12-29T05:15:02;100.78;;;50.60;;
39600;SDS011;25297;44.758;11.310;2022-12-29T05:17:29;95.75;;;50.17;;
39600;SDS011;25297;44.758;11.310;2022-12-29T05:19:54;108.75;;;52.55;;
39600;SDS011;25297;44.758;11.310;2022-12-29T05:22:20;99.55;;;50.17;;
39600;SDS011;25297;44.758;11.310;2022-12-29T05:24:46;99.18;;;50.60;;
39600;SDS011;25297;44.758;11.310;2022-12-29T05:27:12;101.30;;;49.88;;
39600;SDS011;25297;44.758;11.310;2022-12-29T05:29:38;109.93;;;53.88;;
39600;SDS011;25297;44.758;11.310;2022-12-29T05:32:03;104.28;;;52.08;;
39600;SDS011;25297;44.758;11.310;2022-12-29T05:34:29;105.97;;;50.22;;
39600;SDS011;25297;44.758;11.310;2022-12-29T05:36:55;113.68;;;52.25;;
39600;SDS011;25297;44.758;11.310;2022-12-29T05:39:20;102.95;;;51.55;;
39600;SDS011;25297;44.758;11.310;2022-12-29T05:41:46;97.85;;;52.08;;
39600;SDS011;25297;44.758;11.310;2022-12-29T05:44:12;108.65;;;51.40;;
39600;SDS011;25297;44.758;11.310;2022-12-29T05:46:37;128.35;;;54.38;;
39600;SDS011;25297;44.758;11.310;2022-12-29T05:49:03;99.65;;;49.78;;
39600;SDS011;25297;44.758;11.310;2022-12-29T05:51:29;97.38;;;51.05;;
39600;SDS011;25297;44.758;11.310;2022-12-29T05:53:55;99.35;;;50.53;;
39600;SDS011;25297;44.758;11.310;2022-12-29T05:56:21;111.82;;;50.30;;
39600;SDS011;25297;44.758;11.310;2022-12-29T05:58:46;96.60;;;50.38;;
39600;SDS011;25297;44.758;11.310;2022-12-29T06:01:12;91.72;;;49.33;;
39600;SDS011;25297;44.758;11.310;2022-12-29T06:03:38;108.80;;;53.22;;
39600;SDS011;25297;44.758;11.310;2022-12-29T06:06:04;98.70;;;51.85;;
39600;SDS011;25297;44.758;11.310;2022-12-29T06:08:29;107.55;;;53.33;;
39600;SDS011;25297;44.758;11.310;2022-12-29T06:10:55;111.13;;;54.17;;
39600;SDS011;25297;44.758;11.310;2022-12-29T06:13:21;112.05;;;53.55;;
39600;SDS011;25297;44.758;11.310;2022-12-29T06:15:50;99.30;;;51.33;;
39600;SDS011;25297;44.758;11.310;2022-12-29T06:18:16;94.63;;;48.72;;
39600;SDS011;25297;44.758;11.310;2022-12-29T06:20:42;101.18;;;50.00;;
39600;SDS011;25297;44.758;11.310;2022-12-29T06:23:08;94.78;;;50.08;;
39600;SDS011;25297;44.758;11.310;2022-12-29T06:25:33;103.40;;;53.65;;
39600;SDS011;25297;44.758;11.310;2022-12-29T06:28:00;95.93;;;50.20;;
39600;SDS011;25297;44.758;11.310;2022-12-29T06:30:27;93.97;;;49.90;;
39600;SDS011;25297;44.758;11.310;2022-12-29T06:32:53;94.75;;;49.35;;
39600;SDS011;25297;44.758;11.310;2022-12-29T06:35:19;105.85;;;55.10;;
39600;SDS011;25297;44.758;11.310;2022-12-29T06:37:47;115.18;;;57.28;;
39600;SDS011;25297;44.758;11.310;2022-12-29T06:40:13;107.95;;;54.55;;
39600;SDS011;25297;44.758;11.310;2022-12-29T06:42:39;114.57;;;57.67;;
39600;SDS011;25297;44.758;11.310;2022-12-29T06:45:04;108.13;;;53.72;;
39600;SDS011;25297;44.758;11.310;2022-12-29T06:47:30;102.28;;;49.80;;
39600;SDS011;25297;44.758;11.310;2022-12-29T06:49:56;115.00;;;55.67;;
39600;SDS011;25297;44.758;11.310;2022-12-29T06:52:21;99.13;;;51.15;;
39600;SDS011;25297;44.758;11.310;2022-12-29T06:54:49;101.25;;;51.70;;
39600;SDS011;25297;44.758;11.310;2022-12-29T06:57:15;99.47;;;52.80;;
39600;SDS011;25297;44.758;11.310;2022-12-29T06:59:40;114.53;;;53.45;;
39600;SDS011;25297;44.758;11.310;2022-12-29T07:02:06;101.78;;;52.80;;
39600;SDS011;25297;44.758;11.310;2022-12-29T07:04:33;111.18;;;52.83;;
39600;SDS011;25297;44.758;11.310;2022-12-29T07:06:59;94.07;;;52.10;;
39600;SDS011;25297;44.758;11.310;2022-12-29T07:09:24;100.22;;;52.17;;
39600;SDS011;25297;44.758;11.310;2022-12-29T07:11:50;98.63;;;51.95;;
39600;SDS011;25297;44.758;11.310;2022-12-29T07:14:16;93.05;;;50.03;;
39600;SDS011;25297;44.758;11.310;2022-12-29T07:16:42;95.15;;;51.55;;
39600;SDS011;25297;44.758;11.310;2022-12-29T07:19:07;106.03;;;55.95;;
39600;SDS011;25297;44.758;11.310;2022-12-29T07:21:33;93.28;;;53.95;;
39600;SDS011;25297;44.758;11.310;2022-12-29T07:23:58;99.07;;;54.80;;
39600;SDS011;25297;44.758;11.310;2022-12-29T07:26:24;102.45;;;54.78;;
39600;SDS011;25297;44.758;11.310;2022-12-29T07:28:50;90.50;;;51.78;;
39600;SDS011;25297;44.758;11.310;2022-12-29T07:31:19;101.45;;;54.67;;
39600;SDS011;25297;44.758;11.310;2022-12-29T07:33:47;99.43;;;51.58;;
39600;SDS011;25297;44.758;11.310;2022-12-29T07:36:13;94.47;;;52.03;;
39600;SDS011;25297;44.758;11.310;2022-12-29T07:38:40;88.90;;;50.72;;
39600;SDS011;25297;44.758;11.310;2022-12-29T07:41:06;104.38;;;55.60;;
39600;SDS011;25297;44.758;11.310;2022-12-29T07:43:32;112.35;;;56.97;;
39600;SDS011;25297;44.758;11.310;2022-12-29T07:45:58;94.80;;;53.72;;
39600;SDS011;25297;44.758;11.310;2022-12-29T07:48:23;102.28;;;54.47;;
39600;SDS011;25297;44.758;11.310;2022-12-29T07:50:49;91.72;;;52.10;;
39600;SDS011;25297;44.758;11.310;2022-12-29T07:53:15;93.32;;;50.65;;
39600;SDS011;25297;44.758;11.310;2022-12-29T07:55:41;95.10;;;50.85;;
39600;SDS011;25297;44.758;11.310;2022-12-29T07:58:06;93.18;;;51.08;;
39600;SDS011;25297;44.758;11.310;2022-12-29T08:00:32;89.15;;;49.83;;
39600;SDS011;25297;44.758;11.310;2022-12-29T08:02:58;90.45;;;50.63;;
39600;SDS011;25297;44.758;11.310;2022-12-29T08:05:24;97.85;;;51.30;;
39600;SDS011;25297;44.758;11.310;2022-12-29T08:07:50;91.43;;;49.65;;
39600;SDS011;25297;44.758;11.310;2022-12-29T08:10:16;90.90;;;49.03;;
39600;SDS011;25297;44.758;11.310;2022-12-29T08:12:42;88.57;;;48.00;;
39600;SDS011;25297;44.758;11.310;2022-12-29T08:15:08;89.65;;;47.88;;
39600;SDS011;25297;44.758;11.310;2022-12-29T08:17:35;96.35;;;49.30;;
39600;SDS011;25297;44.758;11.310;2022-12-29T08:20:01;99.82;;;49.60;;
39600;SDS011;25297;44.758;11.310;2022-12-29T08:22:28;94.68;;;50.72;;
39600;SDS011;25297;44.758;11.310;2022-12-29T08:24:53;103.47;;;52.17;;
39600;SDS011;25297;44.758;11.310;2022-12-29T08:27:19;84.03;;;47.58;;
39600;SDS011;25297;44.758;11.310;2022-12-29T08:29:45;87.18;;;48.10;;
39600;SDS011;25297;44.758;11.310;2022-12-29T08:32:10;91.05;;;48.88;;
39600;SDS011;25297;44.758;11.310;2022-12-29T08:34:36;87.97;;;48.25;;
39600;SDS011;25297;44.758;11.310;2022-12-29T08:37:02;93.85;;;51.00;;
39600;SDS011;25297;44.758;11.310;2022-12-29T08:39:28;91.63;;;48.28;;
39600;SDS011;25297;44.758;11.310;2022-12-29T08:41:53;91.63;;;47.78;;
39600;SDS011;25297;44.758;11.310;2022-12-29T08:44:19;96.00;;;49.92;;
39600;SDS011;25297;44.758;11.310;2022-12-29T08:46:45;98.10;;;52.38;;
39600;SDS011;25297;44.758;11.310;2022-12-29T08:49:11;99.00;;;49.03;;
39600;SDS011;25297;44.758;11.310;2022-12-29T08:51:36;96.38;;;53.05;;
39600;SDS011;25297;44.758;11.310;2022-12-29T08:54:02;98.22;;;49.92;;
39600;SDS011;25297;44.758;11.310;2022-12-29T08:56:28;106.53;;;51.83;;
39600;SDS011;25297;44.758;11.310;2022-12-29T08:58:53;98.63;;;50.53;;
39600;SDS011;25297;44.758;11.310;2022-12-29T09:01:19;101.93;;;52.13;;
39600;SDS011;25297;44.758;11.310;2022-12-29T09:03:46;99.30;;;51.17;;
39600;SDS011;25297;44.758;11.310;2022-12-29T09:06:12;106.55;;;50.33;;
39600;SDS011;25297;44.758;11.310;2022-12-29T09:08:38;102.80;;;51.15;;
39600;SDS011;25297;44.758;11.310;2022-12-29T09:11:11;109.65;;;55.53;;
39600;SDS011;25297;44.758;11.310;2022-12-29T09:13:40;107.65;;;55.55;;
39600;SDS011;25297;44.758;11.310;2022-12-29T09:16:06;114.57;;;57.38;;
39600;SDS011;25297;44.758;11.310;2022-12-29T09:18:32;113.38;;;55.85;;
39600;SDS011;25297;44.758;11.310;2022-12-29T09:20:58;105.63;;;54.13;;
39600;SDS011;25297;44.758;11.310;2022-12-29T09:23:25;106.25;;;53.08;;
39600;SDS011;25297;44.758;11.310;2022-12-29T09:25:52;104.10;;;52.60;;
39600;SDS011;25297;44.758;11.310;2022-12-29T09:28:18;114.18;;;54.45;;
39600;SDS011;25297;44.758;11.310;2022-12-29T09:30:44;113.50;;;56.00;;
39600;SDS011;25297;44.758;11.310;2022-12-29T09:33:09;122.88;;;56.35;;
39600;SDS011;25297;44.758;11.310;2022-12-29T09:35:35;106.53;;;54.35;;
39600;SDS011;25297;44.758;11.310;2022-12-29T09:38:01;100.10;;;51.72;;
39600;SDS011;25297;44.758;11.310;2022-12-29T09:40:31;110.15;;;54.67;;
39600;SDS011;25297;44.758;11.310;2022-12-29T09:43:18;111.55;;;54.17;;
39600;SDS011;25297;44.758;11.310;2022-12-29T09:48:33;104.65;;;52.22;;
39600;SDS011;25297;44.758;11.310;2022-12-29T09:51:05;110.93;;;51.72;;
39600;SDS011;25297;44.758;11.310;2022-12-29T09:53:36;119.18;;;56.67;;
39600;SDS011;25297;44.758;11.310;2022-12-29T09:56:07;113.65;;;55.60;;
39600;SDS011;25297;44.758;11.310;2022-12-29T09:58:45;114.50;;;56.45;;
39600;SDS011;25297;44.758;11.310;2022-12-29T10:01:16;121.38;;;55.70;;
39600;SDS011;25297;44.758;11.310;2022-12-29T10:04:02;117.55;;;55.55;;
39600;SDS011;25297;44.758;11.310;2022-12-29T10:20:26;113.68;;;57.42;;
39600;SDS011;25297;44.758;11.310;2022-12-29T10:25:31;119.97;;;55.17;;
39600;SDS011;25297;44.758;11.310;2022-12-29T10:28:03;112.80;;;55.70;;
39600;SDS011;25297;44.758;11.310;2022-12-29T10:30:35;125.85;;;57.38;;
39600;SDS011;25297;44.758;11.310;2022-12-29T10:33:02;118.15;;;56.30;;
39600;SDS011;25297;44.758;11.310;2022-12-29T10:35:32;116.43;;;55.40;;
39600;SDS011;25297;44.758;11.310;2022-12-29T10:40:49;110.57;;;53.53;;
39600;SDS011;25297;44.758;11.310;2022-12-29T10:45:56;110.85;;;52.95;;
39600;SDS011;25297;44.758;11.310;2022-12-29T10:48:31;110.00;;;53.53;;
39600;SDS011;25297;44.758;11.310;2022-12-29T10:50:59;104.55;;;51.28;;
39600;SDS011;25297;44.758;11.310;2022-12-29T10:53:44;103.05;;;52.42;;
39600;SDS011;25297;44.758;11.310;2022-12-29T10:56:27;101.15;;;48.78;;
39600;SDS011;25297;44.758;11.310;2022-12-29T10:59:01;102.22;;;52.00;;
39600;SDS011;25297;44.758;11.310;2022-12-29T11:01:41;98.78;;;48.35;;
39600;SDS011;25297;44.758;11.310;2022-12-29T11:07:08;93.57;;;45.88;;
39600;SDS011;25297;44.758;11.310;2022-12-29T11:09:36;75.00;;;41.25;;
39600;SDS011;25297;44.758;11.310;2022-12-29T11:17:44;82.45;;;41.92;;
39600;SDS011;25297;44.758;11.310;2022-12-29T11:20:31;75.78;;;38.70;;
39600;SDS011;25297;44.758;11.310;2022-12-29T11:25:25;63.95;;;36.05;;
39600;SDS011;25297;44.758;11.310;2022-12-29T11:27:55;69.05;;;38.00;;
39600;SDS011;25297;44.758;11.310;2022-12-29T11:30:23;66.97;;;36.28;;
39600;SDS011;25297;44.758;11.310;2022-12-29T11:32:51;55.13;;;31.63;;
39600;SDS011;25297;44.758;11.310;2022-12-29T11:35:39;61.22;;;35.03;;
39600;SDS011;25297;44.758;11.310;2022-12-29T11:38:15;50.65;;;30.98;;
39600;SDS011;25297;44.758;11.310;2022-12-29T11:40:45;63.70;;;33.95;;
39600;SDS011;25297;44.758;11.310;2022-12-29T11:43:18;59.83;;;32.92;;
39600;SDS011;25297;44.758;11.310;2022-12-29T11:45:59;59.67;;;33.00;;
39600;SDS011;25297;44.758;11.310;2022-12-29T11:48:32;57.83;;;33.35;;
39600;SDS011;25297;44.758;11.310;2022-12-29T11:51:03;55.42;;;31.65;;
39600;SDS011;25297;44.758;11.310;2022-12-29T11:56:05;55.45;;;31.40;;
39600;SDS011;25297;44.758;11.310;2022-12-29T11:58:35;55.50;;;32.45;;
39600;SDS011;25297;44.758;11.310;2022-12-29T12:01:13;54.60;;;30.70;;
39600;SDS011;25297;44.758;11.310;2022-12-29T12:03:44;49.55;;;28.90;;
39600;SDS011;25297;44.758;11.310;2022-12-29T12:06:16;52.33;;;30.20;;
39600;SDS011;25297;44.758;11.310;2022-12-29T12:08:56;52.38;;;29.52;;
39600;SDS011;25297;44.758;11.310;2022-12-29T12:16:55;47.22;;;29.25;;
39600;SDS011;25297;44.758;11.310;2022-12-29T12:22:13;48.10;;;29.30;;
39600;SDS011;25297;44.758;11.310;2022-12-29T12:29:52;49.92;;;30.52;;
39600;SDS011;25297;44.758;11.310;2022-12-29T12:41:08;47.72;;;30.48;;
39600;SDS011;25297;44.758;11.310;2022-12-29T12:43:57;49.05;;;30.63;;
39600;SDS011;25297;44.758;11.310;2022-12-29T12:46:42;54.22;;;32.30;;
39600;SDS011;25297;44.758;11.310;2022-12-29T12:54:54;56.28;;;33.05;;
39600;SDS011;25297;44.758;11.310;2022-12-29T12:57:44;56.95;;;33.13;;
39600;SDS011;25297;44.758;11.310;2022-12-29T13:00:16;53.85;;;31.98;;
39600;SDS011;25297;44.758;11.310;2022-12-29T13:05:28;49.42;;;30.48;;
39600;SDS011;25297;44.758;11.310;2022-12-29T13:10:47;53.13;;;30.87;;
39600;SDS011;25297;44.758;11.310;2022-12-29T13:13:33;51.33;;;31.13;;
39600;SDS011;25297;44.758;11.310;2022-12-29T13:22:09;51.22;;;30.15;;
39600;SDS011;25297;44.758;11.310;2022-12-29T13:30:05;50.30;;;30.35;;
39600;SDS011;25297;44.758;11.310;2022-12-29T13:38:32;50.40;;;29.67;;
39600;SDS011;25297;44.758;11.310;2022-12-29T13:41:05;55.47;;;31.75;;
39600;SDS011;25297;44.758;11.310;2022-12-29T13:43:51;49.55;;;30.42;;
39600;SDS011;25297;44.758;11.310;2022-12-29T13:46:21;53.35;;;32.78;;
39600;SDS011;25297;44.758;11.310;2022-12-29T13:48:53;52.33;;;31.45;;
39600;SDS011;25297;44.758;11.310;2022-12-29T13:51:23;53.53;;;32.47;;
39600;SDS011;25297;44.758;11.310;2022-12-29T13:57:13;47.97;;;29.13;;
39600;SDS011;25297;44.758;11.310;2022-12-29T13:59:54;52.15;;;30.77;;
39600;SDS011;25297;44.758;11.310;2022-12-29T14:02:30;51.83;;;31.50;;
39600;SDS011;25297;44.758;11.310;2022-12-29T14:07:48;52.10;;;31.10;;
39600;SDS011;25297;44.758;11.310;2022-12-29T14:13:12;49.63;;;29.75;;
39600;SDS011;25297;44.758;11.310;2022-12-29T14:15:45;54.22;;;30.08;;
39600;SDS011;25297;44.758;11.310;2022-12-29T14:18:21;48.50;;;29.50;;
39600;SDS011;25297;44.758;11.310;2022-12-29T14:20:53;54.45;;;31.15;;
39600;SDS011;25297;44.758;11.310;2022-12-29T14:26:10;53.42;;;30.00;;
39600;SDS011;25297;44.758;11.310;2022-12-29T14:28:38;47.65;;;29.60;;
39600;SDS011;25297;44.758;11.310;2022-12-29T14:33:41;51.15;;;29.02;;
39600;SDS011;25297;44.758;11.310;2022-12-29T14:36:33;54.08;;;29.88;;
39600;SDS011;25297;44.758;11.310;2022-12-29T14:40:03;52.42;;;31.48;;
39600;SDS011;25297;44.758;11.310;2022-12-29T14:44:46;52.67;;;30.40;;
39600;SDS011;25297;44.758;11.310;2022-12-29T14:47:14;48.13;;;29.35;;
39600;SDS011;25297;44.758;11.310;2022-12-29T14:52:31;50.15;;;30.27;;
39600;SDS011;25297;44.758;11.310;2022-12-29T14:57:49;51.28;;;30.08;;
39600;SDS011;25297;44.758;11.310;2022-12-29T15:00:24;51.38;;;29.90;;
39600;SDS011;25297;44.758;11.310;2022-12-29T15:08:49;47.90;;;28.20;;
39600;SDS011;25297;44.758;11.310;2022-12-29T15:11:30;47.30;;;27.70;;
39600;SDS011;25297;44.758;11.310;2022-12-29T15:14:03;44.67;;;27.85;;
39600;SDS011;25297;44.758;11.310;2022-12-29T15:16:48;44.65;;;27.60;;
39600;SDS011;25297;44.758;11.310;2022-12-29T15:19:23;49.03;;;29.17;;
39600;SDS011;25297;44.758;11.310;2022-12-29T15:21:50;44.95;;;29.48;;
39600;SDS011;25297;44.758;11.310;2022-12-29T15:24:17;46.88;;;28.48;;
39600;SDS011;25297;44.758;11.310;2022-12-29T15:26:44;44.20;;;27.92;;
39600;SDS011;25297;44.758;11.310;2022-12-29T15:31:58;47.33;;;29.20;;
39600;SDS011;25297;44.758;11.310;2022-12-29T15:34:28;41.03;;;25.65;;
39600;SDS011;25297;44.758;11.310;2022-12-29T15:36:55;49.38;;;30.00;;
39600;SDS011;25297;44.758;11.310;2022-12-29T15:39:30;48.85;;;29.20;;
39600;SDS011;25297;44.758;11.310;2022-12-29T15:41:57;46.08;;;29.50;;
39600;SDS011;25297;44.758;11.310;2022-12-29T15:44:38;47.72;;;28.00;;
39600;SDS011;25297;44.758;11.310;2022-12-29T15:47:16;46.78;;;29.17;;
39600;SDS011;25297;44.758;11.310;2022-12-29T15:49:47;46.88;;;30.00;;
39600;SDS011;25297;44.758;11.310;2022-12-29T15:52:18;47.03;;;28.60;;
39600;SDS011;25297;44.758;11.310;2022-12-29T15:54:46;49.10;;;28.50;;
39600;SDS011;25297;44.758;11.310;2022-12-29T15:57:57;46.42;;;28.13;;
39600;SDS011;25297;44.758;11.310;2022-12-29T16:00:24;49.00;;;29.85;;
39600;SDS011;25297;44.758;11.310;2022-12-29T16:02:54;48.28;;;29.33;;
39600;SDS011;25297;44.758;11.310;2022-12-29T16:05:22;51.17;;;30.10;;
39600;SDS011;25297;44.758;11.310;2022-12-29T16:07:52;55.60;;;32.28;;
39600;SDS011;25297;44.758;11.310;2022-12-29T16:10:26;52.10;;;31.73;;
39600;SDS011;25297;44.758;11.310;2022-12-29T16:16:40;54.60;;;32.25;;
39600;SDS011;25297;44.758;11.310;2022-12-29T16:18:50;59.08;;;35.28;;
39600;SDS011;25297;44.758;11.310;2022-12-29T16:21:33;55.33;;;33.22;;
39600;SDS011;25297;44.758;11.310;2022-12-29T16:24:01;50.60;;;30.73;;
39600;SDS011;25297;44.758;11.310;2022-12-29T16:26:31;57.83;;;33.60;;
39600;SDS011;25297;44.758;11.310;2022-12-29T16:28:58;56.55;;;34.95;;
39600;SDS011;25297;44.758;11.310;2022-12-29T16:37:00;61.92;;;35.15;;
39600;SDS011;25297;44.758;11.310;2022-12-29T16:39:49;58.72;;;34.40;;
39600;SDS011;25297;44.758;11.310;2022-12-29T16:42:45;67.63;;;39.63;;
39600;SDS011;25297;44.758;11.310;2022-12-29T16:47:51;58.08;;;32.38;;
39600;SDS011;25297;44.758;11.310;2022-12-29T16:51:00;60.67;;;34.65;;
39600;SDS011;25297;44.758;11.310;2022-12-29T16:53:35;58.25;;;33.75;;
39600;SDS011;25297;44.758;11.310;2022-12-29T16:56:25;58.50;;;33.90;;
39600;SDS011;25297;44.758;11.310;2022-12-29T16:58:52;62.05;;;35.65;;
39600;SDS011;25297;44.758;11.310;2022-12-29T17:01:25;61.58;;;35.83;;
39600;SDS011;25297;44.758;11.310;2022-12-29T17:03:57;66.15;;;38.38;;
39600;SDS011;25297;44.758;11.310;2022-12-29T17:06:25;62.83;;;37.35;;
39600;SDS011;25297;44.758;11.310;2022-12-29T17:08:52;75.43;;;43.78;;
39600;SDS011;25297;44.758;11.310;2022-12-29T17:11:31;88.60;;;49.70;;
39600;SDS011;25297;44.758;11.310;2022-12-29T17:14:23;81.95;;;45.22;;
39600;SDS011;25297;44.758;11.310;2022-12-29T17:16:52;68.25;;;39.63;;